Terminal Aerodrome Forecast
Issued by NWS Glasgow, MT

Home | Current Version | Previous Version | Text Only | Print | Product List | Glossary On
Versions: 1 2 3 4 5 6 7 8 9 10 11 12 13 14
000
FTUS45 KGGW 230500
TAFGGW
TAF
KGGW 230520Z 2306/2406 09010KT P6SM BKN090
     FM231600 10016G24KT P6SM BKN090
     FM240200 10010KT P6SM BKN080=

USA.gov is the U.S. government's official web portal to all federal, state and local government web resources and services.